Flight Track Log - Related Links

Times and Time Zones

All times are in EST time to prevent confusion due to time zone crossing. See the ASQ5740 flight status page for this flight to view local times or setup timezone preferences in your user account.

Time Position Orientation Groundspeed Altitude Reporting Facility
EST Latitude Longitude Course Direction KTS MPH feet Rate Location/Type
Sat 03:08:30 PM 35.0208 -82.1136 38° Northeast 225 259 6,600  Level Atlanta Center
Sat 03:09:30 PM 35.0739 -82.0339 51° Northeast 263 303 9,300 2,100 Climbing Atlanta Center
Sat 03:10:00 PM 35.3121 -81.7618 71° East  Level Estimated
Sat 03:10:30 PM 35.1308 -81.9486 51° Northeast 303 349 10,800  Level Atlanta Center
Sat 03:11:00 PM 35.4141 -81.7053 24° Northeast  Level FlightAware Approximate
Sat 03:11:30 PM 35.2244 -81.9361 North 303 349 12,400  Level Atlanta Center
Sat 03:13:30 PM 35.3936 -81.8222 29° Northeast 328 377 16,100 1,600 Climbing Atlanta Center
Sat 03:14:30 PM 35.4667 -81.7158 50° Northeast 371 427 17,200 1,100 Climbing Atlanta Center
Sat 03:15:30 PM 35.5439 -81.6039 50° Northeast 400 460 18,300 1,200 Climbing Atlanta Center
Sat 03:16:30 PM 35.6017 -81.4692 62° Northeast 432 497 19,600 1,200 Climbing Atlanta Center
Sat 03:17:30 PM 35.6464 -81.3222 69° East 438 504 20,700 1,100 Climbing Atlanta Center
Sat 03:18:30 PM 35.6989 -81.1492 69° East 464 534 21,800 1,000 Climbing Atlanta Center
Sat 03:19:30 PM 35.7431 -80.9942 71° East 476 548 22,700 900 Climbing Atlanta Center
Sat 03:20:30 PM 35.7892 -80.8414 70° East 476 548 23,600 900 Climbing Atlanta Center
Sat 03:21:30 PM 35.8353 -80.6858 70° East 476 548 24,500 416 Climbing Atlanta Center
Sat 03:23:52 PM 35.9464 -80.3078 70° East 485 558 25,000 149 Climbing Washington Center
Sat 03:24:52 PM 35.9967 -80.1389 70° East 503 579 25,000  Level Washington Center
Sat 03:25:53 PM 36.0486 -79.9747 69° East 503 579 25,000  Level Washington Center
Sat 03:26:53 PM 36.1333 -79.8253 55° Northeast 516 594 25,000  Level Washington Center
Sat 03:27:53 PM 36.2178 -79.6753 55° Northeast 523 602 25,000  Level Washington Center
Sat 03:28:51 PM 36.2933 -79.5400 55° Northeast 523 602 25,000  Level Washington Center
Sat 03:29:52 PM 36.3708 -79.4047 55° Northeast 528 608 25,000  Level Washington Center
Sat 03:30:53 PM 36.4681 -79.2286 55° Northeast 528 608 25,000  Level Washington Center
Sat 03:31:51 PM 36.5472 -79.0900 55° Northeast 509 586 25,000  Level Washington Center
Sat 03:32:52 PM 36.6244 -78.9511 55° Northeast 493 567 25,000  Level Washington Center
Sat 03:33:52 PM 36.6903 -78.8272 56° Northeast 488 562 25,000  Level Washington Center
Sat 03:34:53 PM 36.7736 -78.6725 56° Northeast 483 556 25,000  Level Washington Center
Sat 03:35:51 PM 36.8522 -78.5328 55° Northeast 478 550 25,000  Level Washington Center
Sat 03:36:51 PM 36.9200 -78.4056 56° Northeast 478 550 25,000  Level Washington Center
Sat 03:37:51 PM 37.0050 -78.2500 56° Northeast 483 556 25,000  Level Washington Center
Sat 03:38:52 PM 37.0986 -78.1619 37° Northeast 464 534 25,000 -397 Level Washington Center
Sat 03:39:52 PM 37.2006 -78.0819 32° Northeast 453 521 24,200 -793 Descending Washington Center
Sat 03:40:53 PM 37.3000 -78.0042 32° Northeast 435 501 23,400 -793 Descending Washington Center
Sat 03:41:53 PM 37.3997 -77.9289 31° Northeast 423 487 22,600 -712 Descending Washington Center
Sat 03:42:51 PM 37.5014 -77.8508 31° Northeast 416 479 22,000 -305 Descending Washington Center
Sat 03:43:51 PM 37.6047 -77.7858 26° Northeast 411 473 22,000  Level Washington Center
Sat 03:44:53 PM 37.7081 -77.7233 26° Northeast 406 467 22,000  Level Washington Center
Sat 03:45:51 PM 37.8114 -77.6631 25° Northeast 406 467 22,000 -915 Level Washington Center
Sat 03:46:51 PM 37.9167 -77.6000 25° Northeast 406 467 20,200 -2,231 Descending Washington Center
Sat 03:47:52 PM 38.0156 -77.5394 26° Northeast 399 459 17,500 -2,902 Descending Washington Center
Sat 03:48:53 PM 38.1033 -77.5286 North 339 390 14,300 -3,223 Descending Washington Center
Sat 03:49:53 PM 38.1811 -77.4911 21° North 327 376 11,000 -2,186 Descending Washington Center
Sat 03:50:51 PM 38.2428 -77.4133 45° Northeast 304 350 10,000 -559 Descending Washington Center
Sat 03:51:51 PM 38.3186 -77.3647 27° Northeast 304 350 9,900 -496 Descending Washington Center
Sat 03:52:52 PM 38.3700 -77.4083 326° Northwest 235 270 9,000 -836 Descending Washington Center
Sat 03:53:53 PM 38.3731 -77.4853 273° West 159 183 8,200 -706 Descending Washington Center
Sat 03:54:51 PM 38.4461 -77.4792 North 196 226 7,600 -605 Descending Washington Center
Sat 03:55:52 PM 38.5214 -77.4706 North 228 262 7,000 -295 Descending Washington Center
Sat 03:56:53 PM 38.5922 -77.4697 North 246 283 7,000 -149 Level Washington Center
Sat 03:57:53 PM 38.6528 -77.4658 North 238 274 6,700 -763 Descending Washington Center
Sat 03:58:51 PM 38.7069 -77.4644 North 218 251 5,500 -1,314 Descending Washington Center
Sat 04:00:10 PM 38.7833 -77.4667 359° North 174 200 3,700 -1,252 Descending Potomac TRACON
Sat 04:01:10 PM 38.8333 -77.4667 360° North 168 193 2,600 -992 Descending Potomac TRACON
Sat 04:02:11 PM 38.8667 -77.4667 360° North 157 181 1,700 -793 Descending Potomac TRACON
Sat 04:03:11 PM 38.9000 -77.4667 360° North 125 144 1,000 -700 Descending Potomac TRACON

Login

Don't have an account? Register now (free) for customized features, flight alerts, and more!